createdAt,value
2022-11-15T00:00:57.536Z,100341.38
2022-11-15T00:03:26.424Z,100337.88
2022-11-15T00:05:53.331Z,100329.06
2022-11-15T00:08:19.987Z,100329.06
2022-11-15T00:10:57.141Z,100326.13
2022-11-15T00:13:24.280Z,100324.69
2022-11-15T00:15:50.923Z,100320.56
2022-11-15T00:18:18.028Z,100311.25
2022-11-15T00:20:45.160Z,100323.00
2022-11-15T00:23:12.000Z,100308.66
2022-11-15T00:25:38.603Z,100304.03
2022-11-15T00:28:05.196Z,100309.13
2022-11-15T00:30:31.782Z,100298.31
2022-11-15T00:33:03.875Z,100294.19
2022-11-15T00:35:33.587Z,100290.88
2022-11-15T00:38:00.828Z,100283.94
2022-11-15T00:40:27.552Z,100277.91
2022-11-15T00:42:54.204Z,100271.19
2022-11-15T00:45:20.764Z,100266.72
2022-11-15T00:47:47.895Z,100263.22
2022-11-15T00:50:15.503Z,100272.59
2022-11-15T00:52:42.332Z,100266.88
2022-11-15T00:55:20.057Z,100265.75
2022-11-15T00:57:47.404Z,100258.16
2022-11-15T01:00:14.461Z,100261.72
2022-11-15T01:02:41.040Z,100250.34
2022-11-15T01:05:08.139Z,100250.47
2022-11-15T01:07:34.884Z,100252.25
2022-11-15T01:10:01.583Z,100251.50
2022-11-15T01:12:28.229Z,100254.81
2022-11-15T01:14:55.353Z,100254.97
2022-11-15T01:17:22.053Z,100243.88
2022-11-15T01:19:48.651Z,100247.19
2022-11-15T01:22:15.218Z,100244.63
2022-11-15T01:24:41.882Z,100241.16
2022-11-15T01:27:08.737Z,100240.75
2022-11-15T01:29:35.400Z,100235.59
2022-11-15T01:32:02.300Z,100233.72
2022-11-15T01:34:28.840Z,100226.22
2022-11-15T01:36:55.404Z,100217.66
2022-11-15T01:39:22.082Z,100222.75
2022-11-15T01:41:48.644Z,100228.75
2022-11-15T01:44:35.648Z,100213.22
2022-11-15T01:47:07.010Z,100213.06
2022-11-15T01:49:36.131Z,100218.47
2022-11-15T01:52:05.884Z,100213.13
2022-11-15T01:54:33.416Z,100214.50
2022-11-15T01:57:10.304Z,100204.56
2022-11-15T01:59:40.569Z,100199.31
2022-11-15T02:02:07.417Z,100206.72
2022-11-15T02:04:37.316Z,100203.19
2022-11-15T02:07:06.217Z,100200.81
2022-11-15T02:09:32.855Z,100196.31
2022-11-15T02:12:00.600Z,100197.34
2022-11-15T02:14:29.261Z,100197.19
2022-11-15T02:17:21.687Z,100183.53
2022-11-15T02:20:18.448Z,100189.34
2022-11-15T02:22:57.256Z,100184.50
2022-11-15T02:25:33.329Z,100186.06
2022-11-15T02:28:02.481Z,100194.56
2022-11-15T02:30:42.102Z,100198.94
2022-11-15T02:33:27.406Z,100195.03
2022-11-15T02:36:01.586Z,100194.78
2022-11-15T02:38:39.500Z,100186.06
2022-11-15T02:41:11.289Z,100175.91
2022-11-15T02:44:06.940Z,100176.53
2022-11-15T02:47:16.286Z,100178.16
2022-11-15T02:49:55.552Z,100173.69
2022-11-15T02:52:26.289Z,100173.84
2022-11-15T02:54:57.683Z,100173.06
2022-11-15T02:57:50.619Z,100167.72
2022-11-15T03:00:20.284Z,100161.31
2022-11-15T03:03:05.703Z,100152.66
2022-11-15T03:06:01.469Z,100150.13
2022-11-15T03:08:57.284Z,100145.28
2022-11-15T03:11:24.592Z,100151.22
2022-11-15T03:14:19.695Z,100137.66
2022-11-15T03:16:49.200Z,100138.13
2022-11-15T03:19:41.619Z,100137.66
2022-11-15T03:22:15.160Z,100133.53
2022-11-15T06:11:15.287Z,100021.53
2022-11-15T06:13:41.914Z,100019.97
2022-11-15T06:16:08.447Z,100014.91
2022-11-15T06:18:36.101Z,100016.88
2022-11-15T06:21:02.656Z,100017.75
2022-11-15T06:23:33.444Z,100015.03
2022-11-15T06:26:00.565Z,100018.53
2022-11-15T06:28:33.969Z,100010.34
2022-11-15T06:31:05.488Z,100014.25
2022-11-15T06:33:32.731Z,100013.91
2022-11-15T06:36:10.869Z,100016.59
2022-11-15T06:38:41.191Z,100015.47
2022-11-15T06:41:10.379Z,100016.72
2022-11-15T06:43:37.460Z,100011.34
2022-11-15T06:46:05.805Z,100015.44
2022-11-15T06:48:33.964Z,100018.84
2022-11-15T06:51:02.168Z,100007.41
2022-11-15T06:53:29.281Z,100011.59
2022-11-15T06:56:03.784Z,100007.81
2022-11-15T06:58:30.690Z,100006.28
2022-11-15T07:01:12.649Z,100013.75
2022-11-15T07:03:41.639Z,100015.34
2022-11-15T07:06:09.543Z,100013.63
2022-11-15T07:08:36.748Z,100012.91
2022-11-15T07:11:08.425Z,100013.09
2022-11-15T07:13:36.528Z,100011.75
2022-11-15T07:16:07.951Z,100016.13
2022-11-15T07:18:39.405Z,100015.38
2022-11-15T07:21:08.521Z,99999.69
2022-11-15T07:23:38.287Z,100006.13
2022-11-15T07:26:05.034Z,100012.09
2022-11-15T07:28:31.826Z,100000.19
2022-11-15T07:30:58.635Z,99993.66
2022-11-15T07:33:25.183Z,99995.81
2022-11-15T07:35:51.769Z,99985.34
2022-11-15T07:38:21.611Z,99978.63
2022-11-15T07:40:48.533Z,99961.09
2022-11-15T07:43:15.185Z,99969.50
2022-11-15T07:45:46.473Z,99964.69
2022-11-15T07:48:13.071Z,99964.13
2022-11-15T07:50:43.474Z,99958.94
2022-11-15T07:53:11.413Z,99958.53
2022-11-15T07:55:38.345Z,99944.50
2022-11-15T07:58:06.612Z,99953.97
2022-11-15T08:00:34.196Z,99948.03
2022-11-15T08:03:07.523Z,99944.69
2022-11-15T08:05:34.840Z,99940.13
2022-11-15T08:08:01.715Z,99945.31
2022-11-15T08:10:29.628Z,99945.31
2022-11-15T08:13:08.393Z,99943.41
2022-11-15T08:15:36.507Z,99941.06
2022-11-15T08:18:06.048Z,99935.06
2022-11-15T08:20:33.360Z,99932.59
2022-11-15T08:23:02.023Z,99932.25
2022-11-15T08:25:30.837Z,99926.81
2022-11-15T08:27:59.633Z,99918.25
2022-11-15T08:30:26.795Z,99925.63
2022-11-15T08:32:54.478Z,99923.78
2022-11-15T08:35:26.232Z,99923.41
2022-11-15T08:37:55.735Z,99914.13
2022-11-15T08:40:24.255Z,99911.81
2022-11-15T08:42:50.932Z,99915.69
2022-11-15T08:45:17.591Z,99905.78
2022-11-15T08:47:49.727Z,99904.94
2022-11-15T08:50:19.748Z,99887.78
2022-11-15T08:52:46.387Z,99884.94
2022-11-15T08:55:12.937Z,99882.56
2022-11-15T08:57:39.518Z,99881.47
2022-11-15T09:00:06.897Z,99882.72
2022-11-15T09:02:33.472Z,99870.69
2022-11-15T09:05:00.080Z,99866.91
2022-11-15T09:07:26.722Z,99855.94
2022-11-15T09:09:53.360Z,99852.53
2022-11-15T09:12:19.975Z,99846.56
2022-11-15T09:14:46.531Z,99843.66
2022-11-15T09:17:13.067Z,99845.53
2022-11-15T09:19:39.657Z,99828.16
2022-11-15T09:22:09.573Z,99824.97
2022-11-15T09:24:36.384Z,99821.69
2022-11-15T09:27:03.090Z,99816.38
2022-11-15T09:29:29.708Z,99805.50
2022-11-15T09:31:56.266Z,99797.97
2022-11-15T09:34:22.916Z,99803.13
2022-11-15T09:36:49.474Z,99792.75
2022-11-15T09:39:16.060Z,99798.25
2022-11-15T09:41:56.540Z,99792.50
2022-11-15T09:44:59.941Z,99783.66
2022-11-15T09:47:35.593Z,99781.19
2022-11-15T09:50:08.955Z,99764.72
2022-11-15T09:52:37.585Z,99768.47
2022-11-15T09:55:07.301Z,99765.59
2022-11-15T09:57:43.047Z,99754.44
2022-11-15T10:00:46.347Z,99749.91
2022-11-15T10:03:15.092Z,99743.69
2022-11-15T10:05:49.856Z,99746.16
2022-11-15T10:08:22.528Z,99738.47
2022-11-15T10:11:09.772Z,99734.06
2022-11-15T10:13:45.657Z,99719.28
2022-11-15T10:16:35.609Z,99716.81
2022-11-15T10:19:11.363Z,99711.59
2022-11-15T10:22:09.426Z,99704.00
2022-11-15T10:24:41.249Z,99707.53
2022-11-15T10:27:17.546Z,99699.97
2022-11-15T10:29:46.810Z,99699.25
2022-11-15T10:32:15.268Z,99694.31
2022-11-15T10:34:42.306Z,99681.81
2022-11-15T10:37:09.466Z,99680.22
2022-11-15T10:39:36.048Z,99676.25
2022-11-15T10:42:29.114Z,99666.06
2022-11-15T10:44:55.957Z,99667.34
2022-11-15T10:47:23.195Z,99655.69
2022-11-15T10:49:57.598Z,99643.81
2022-11-15T10:52:25.537Z,99638.09
2022-11-15T10:54:53.168Z,99639.97
2022-11-15T10:57:23.680Z,99634.06
2022-11-15T10:59:53.956Z,99621.50
2022-11-15T11:02:31.664Z,99622.34
2022-11-15T11:04:58.334Z,99613.19
2022-11-15T11:07:28.299Z,99612.28
2022-11-15T11:09:59.208Z,99614.81
2022-11-15T11:12:33.865Z,99605.31
2022-11-15T11:15:13.029Z,99597.72
2022-11-15T11:17:51.447Z,99595.84
2022-11-15T11:20:37.807Z,99584.69
2022-11-15T11:23:13.306Z,99582.88
2022-11-15T11:26:22.062Z,99576.38
2022-11-15T11:29:12.977Z,99576.59
2022-11-15T11:32:02.144Z,99568.06
2022-11-15T11:35:01.217Z,99559.75
2022-11-15T11:37:42.628Z,99562.75
2022-11-15T11:40:44.324Z,99558.69
2022-11-15T11:43:29.174Z,99558.13
2022-11-15T11:46:14.474Z,99542.06
2022-11-15T11:48:48.431Z,99548.16
2022-11-15T11:51:24.370Z,99539.84
2022-11-15T11:54:01.215Z,99543.22
2022-11-15T11:56:30.827Z,99530.31
2022-11-15T11:59:07.609Z,99523.63
2022-11-15T12:01:43.936Z,99528.81
2022-11-15T12:04:13.665Z,99529.47
2022-11-15T12:06:57.719Z,99518.34
2022-11-15T12:09:45.609Z,99515.06
2022-11-15T12:12:22.392Z,99510.97
2022-11-15T12:15:04.480Z,99502.66
2022-11-15T12:17:33.089Z,99496.56
2022-11-15T12:20:10.309Z,99499.06
2022-11-15T12:22:37.833Z,99501.66
2022-11-15T12:25:56.579Z,99499.84
2022-11-15T12:28:33.500Z,99482.25
2022-11-15T12:31:17.391Z,99471.16
2022-11-15T12:34:00.612Z,99474.09
2022-11-15T12:36:43.078Z,99463.91
2022-11-15T12:39:14.038Z,99462.38
2022-11-15T12:41:42.871Z,99461.66
2022-11-15T12:44:24.122Z,99455.72
2022-11-15T12:46:50.647Z,99458.44
2022-11-15T12:49:40.417Z,99459.03
2022-11-15T12:52:09.281Z,99462.63
2022-11-15T12:54:41.446Z,99456.34
2022-11-15T12:57:07.977Z,99447.59
2022-11-15T12:59:59.157Z,99446.00
2022-11-15T13:02:49.442Z,99444.41
2022-11-15T13:05:23.420Z,99439.94
2022-11-15T13:07:50.076Z,99442.38
2022-11-15T13:10:16.577Z,99437.50
2022-11-15T13:12:46.118Z,99439.25
2022-11-15T13:15:12.616Z,99436.97
2022-11-15T13:17:55.716Z,99432.72
2022-11-15T13:20:28.690Z,99428.31
2022-11-15T13:23:05.659Z,99424.13
2022-11-15T13:26:05.995Z,99419.00
2022-11-15T13:28:32.662Z,99431.25
2022-11-15T13:31:02.093Z,99421.72
2022-11-15T13:33:37.911Z,99420.88
2022-11-15T13:36:15.585Z,99420.88
2022-11-15T13:38:42.944Z,99410.72
2022-11-15T13:41:17.977Z,99413.25
2022-11-15T13:43:44.868Z,99400.50
2022-11-15T13:46:24.569Z,99397.38
2022-11-15T13:48:57.588Z,99396.41
2022-11-15T13:51:47.276Z,99389.66
2022-11-15T13:54:18.539Z,99395.56
2022-11-15T13:56:52.963Z,99383.69
2022-11-15T13:59:50.880Z,99377.06
2022-11-15T14:02:26.278Z,99381.44
2022-11-15T14:04:57.258Z,99375.38
2022-11-15T14:07:26.648Z,99371.97
2022-11-15T14:09:53.333Z,99371.25
2022-11-15T14:12:30.842Z,99357.75
2022-11-15T14:14:58.255Z,99354.50
2022-11-15T14:17:30.855Z,99353.56
2022-11-15T14:19:59.014Z,99345.78
2022-11-15T14:22:29.023Z,99343.34
2022-11-15T14:25:13.682Z,99343.34
2022-11-15T14:27:41.617Z,99338.09
2022-11-15T14:30:17.649Z,99330.56
2022-11-15T14:32:48.324Z,99333.94
2022-11-15T14:35:20.759Z,99335.66
2022-11-15T14:53:03.634Z,99329.06
2022-11-15T14:55:35.276Z,99329.84
2022-11-15T14:58:06.165Z,99326.44
2022-11-15T15:00:35.229Z,99326.69
2022-11-15T15:03:02.639Z,99317.97
2022-11-15T15:05:41.396Z,99307.03
2022-11-15T15:08:09.036Z,99320.50
2022-11-15T15:10:44.352Z,99321.47
2022-11-15T15:13:22.820Z,99315.44
2022-11-15T15:15:50.687Z,99315.56
2022-11-15T15:18:17.685Z,99312.31
2022-11-15T15:20:46.817Z,99304.56
2022-11-15T15:23:19.125Z,99306.47
2022-11-15T15:25:47.019Z,99299.47
2022-11-15T15:28:14.058Z,99298.53
2022-11-15T15:30:40.716Z,99295.16
2022-11-15T15:33:07.426Z,99290.34
2022-11-15T15:35:35.724Z,99291.81
2022-11-15T15:38:03.073Z,99289.28
2022-11-15T15:40:32.670Z,99279.19
2022-11-15T15:42:59.831Z,99280.09
2022-11-15T15:58:37.311Z,99261.47
2022-11-15T16:01:04.121Z,99261.47
2022-11-15T16:03:30.741Z,99251.97
2022-11-15T16:05:57.401Z,99253.69
2022-11-15T16:08:25.443Z,99246.28
2022-11-15T16:10:52.038Z,99249.66
2022-11-15T16:13:18.729Z,99246.13
2022-11-15T16:15:47.907Z,99247.72
2022-11-15T16:18:17.507Z,99248.75
2022-11-15T16:20:51.034Z,99243.69
2022-11-15T16:23:20.936Z,99232.69
2022-11-15T16:25:52.032Z,99239.38
2022-11-15T16:28:30.723Z,99236.94
2022-11-15T16:31:05.128Z,99229.38
2022-11-15T16:33:32.486Z,99224.22
2022-11-15T16:35:59.333Z,99231.03
2022-11-15T16:38:26.035Z,99222.41
2022-11-15T16:40:52.694Z,99228.41
2022-11-15T16:43:19.498Z,99219.84
2022-11-15T16:45:46.405Z,99218.28
2022-11-15T16:48:28.778Z,99214.88
2022-11-15T16:50:57.377Z,99203.75
2022-11-15T16:53:24.888Z,99211.50
2022-11-15T16:55:51.497Z,99206.47
2022-11-15T16:58:18.027Z,99203.88
2022-11-15T17:00:44.755Z,99203.75
2022-11-15T17:03:12.103Z,99211.56
2022-11-15T17:05:38.664Z,99199.59
2022-11-15T17:08:06.483Z,99202.25
2022-11-15T17:10:33.102Z,99210.00
2022-11-15T17:12:59.637Z,99209.09
2022-11-15T17:15:26.194Z,99202.31
2022-11-15T17:17:54.396Z,99203.97
2022-11-15T17:20:24.071Z,99190.41
2022-11-15T17:22:51.506Z,99190.47
2022-11-15T17:25:18.124Z,99187.16
2022-11-15T17:27:44.699Z,99184.66
2022-11-15T17:30:15.212Z,99181.28
2022-11-15T17:32:43.098Z,99175.34
2022-11-15T17:35:15.635Z,99177.09
2022-11-15T17:37:42.896Z,99171.09
2022-11-15T17:40:09.942Z,99163.53
2022-11-15T17:42:36.524Z,99155.09
2022-11-15T17:45:08.383Z,99158.44
2022-11-15T17:47:37.256Z,99154.19
2022-11-15T17:50:04.132Z,99150.88
2022-11-15T17:52:30.667Z,99145.81
2022-11-15T17:54:57.276Z,99137.28
2022-11-15T17:57:24.121Z,99133.91
2022-11-15T17:59:50.668Z,99134.75
2022-11-15T18:02:17.302Z,99127.97
2022-11-15T18:04:43.848Z,99131.25
2022-11-15T18:07:12.321Z,99120.13
2022-11-15T18:09:42.402Z,99113.34
2022-11-15T18:12:09.692Z,99113.47
2022-11-15T18:14:36.605Z,99113.44
2022-11-15T18:17:03.308Z,99114.28
2022-11-15T18:19:29.852Z,99109.97
2022-11-15T18:21:56.597Z,99107.47
2022-11-15T18:24:30.454Z,99106.59
2022-11-15T18:26:58.146Z,99109.09
2022-11-15T18:29:25.084Z,99109.09
2022-11-15T18:34:24.878Z,99109.09
2022-11-15T18:36:52.673Z,99101.50
2022-11-15T18:39:19.957Z,99095.63
2022-11-15T18:41:47.082Z,99099.84
2022-11-15T18:44:15.608Z,99104.13
2022-11-15T18:46:42.698Z,99102.44
2022-11-15T18:49:10.665Z,99104.19
2022-11-15T18:51:37.977Z,99096.50
2022-11-15T18:54:04.643Z,99094.03
2022-11-15T18:56:32.720Z,99092.28
2022-11-15T18:59:02.026Z,99087.03
2022-11-15T19:01:34.637Z,99088.75
2022-11-15T19:04:20.678Z,99087.97
2022-11-15T19:06:49.534Z,99090.56
2022-11-15T19:09:17.658Z,99087.19
2022-11-15T19:11:46.431Z,99077.00
2022-11-15T19:14:15.971Z,99074.44
2022-11-15T19:16:52.026Z,99076.13
2022-11-15T19:19:21.626Z,99070.09
2022-11-15T19:21:48.687Z,99078.56
2022-11-15T19:24:15.517Z,99073.56
2022-11-15T19:26:42.590Z,99065.09
2022-11-15T19:29:13.856Z,99062.59
2022-11-15T19:31:40.901Z,99061.75
2022-11-15T19:34:08.430Z,99061.75
2022-11-15T19:36:37.689Z,99049.75
2022-11-15T19:39:08.475Z,99047.31
2022-11-15T19:41:37.945Z,99041.31
2022-11-15T19:44:05.836Z,99033.59
2022-11-15T19:46:32.745Z,99034.47
2022-11-15T19:48:59.453Z,99033.59
2022-11-15T19:51:28.258Z,99029.41
2022-11-15T19:54:01.332Z,99030.25
2022-11-15T19:56:27.905Z,99026.06
2022-11-15T19:58:56.418Z,99026.06
2022-11-15T20:01:25.604Z,99027.78
2022-11-15T20:03:54.677Z,99025.97
2022-11-15T20:06:29.691Z,99021.63
2022-11-15T20:08:56.303Z,99020.78
2022-11-15T20:11:23.462Z,99016.53
2022-11-15T20:13:50.253Z,99018.22
2022-11-15T20:16:21.872Z,99021.63
2022-11-15T20:18:51.502Z,99018.22
2022-11-15T20:21:18.420Z,99017.47
2022-11-15T20:23:47.639Z,99019.13
2022-11-15T20:26:15.215Z,99015.72
2022-11-15T20:28:42.229Z,99016.66
2022-11-15T20:31:14.508Z,99017.50
2022-11-15T20:33:41.274Z,99015.78
2022-11-15T20:36:11.225Z,99016.56
2022-11-15T20:38:37.853Z,99022.69
2022-11-15T20:41:04.688Z,99013.34
2022-11-15T20:43:31.301Z,99014.97
2022-11-15T20:45:57.884Z,99018.41
2022-11-15T20:48:24.521Z,99011.59
2022-11-15T20:50:51.100Z,99009.91
2022-11-15T20:53:20.121Z,99000.53
2022-11-15T20:55:52.390Z,99000.72
2022-11-15T20:58:19.449Z,99007.41
2022-11-15T21:00:46.554Z,99004.16
2022-11-15T21:03:14.459Z,99008.38
2022-11-15T21:05:43.272Z,99001.53
2022-11-15T21:08:11.786Z,99003.31
2022-11-15T21:10:58.360Z,98996.50
2022-11-15T21:13:25.543Z,98987.09
2022-11-15T21:15:56.848Z,98989.75
2022-11-15T21:18:23.760Z,98988.03
2022-11-15T21:20:50.694Z,98977.81
2022-11-15T21:23:17.349Z,98979.44
2022-11-15T21:25:50.024Z,98975.22
2022-11-15T21:28:17.182Z,98971.88
2022-11-15T21:30:53.493Z,98975.28
2022-11-15T21:33:21.483Z,98975.22
2022-11-15T21:35:48.014Z,98978.59
2022-11-15T21:38:14.637Z,98974.44
2022-11-15T21:40:41.381Z,98970.94
2022-11-15T21:43:07.936Z,98961.53
2022-11-15T21:45:34.513Z,98952.31
2022-11-15T21:48:01.054Z,98954.09
2022-11-15T21:50:27.632Z,98954.19
2022-11-15T21:52:54.224Z,98952.41
2022-11-15T21:55:20.777Z,98950.72
2022-11-15T21:57:47.378Z,98950.69
2022-11-15T22:00:33.158Z,98951.53
2022-11-15T22:02:59.726Z,98949.00
2022-11-15T22:05:26.311Z,98943.88
2022-11-15T22:07:52.977Z,98941.47
2022-11-15T22:10:19.657Z,98943.91
2022-11-15T22:12:46.294Z,98927.78
2022-11-15T22:15:12.951Z,98937.97
2022-11-15T22:18:11.696Z,98927.78
2022-11-15T22:20:44.414Z,98929.50
2022-11-15T22:23:11.964Z,98932.88
2022-11-15T22:25:38.676Z,98926.13
2022-11-15T22:28:05.485Z,98922.69
2022-11-15T22:30:32.169Z,98910.75
2022-11-15T22:32:58.851Z,98914.97
2022-11-15T22:35:25.519Z,98910.63
2022-11-15T22:37:52.858Z,98910.63
2022-11-15T22:40:19.624Z,98914.00
2022-11-15T22:42:46.225Z,98917.44
2022-11-15T22:45:12.835Z,98914.00
2022-11-15T22:47:39.401Z,98908.88
2022-11-15T22:50:06.534Z,98913.16
2022-11-15T22:52:33.275Z,98917.41
2022-11-15T22:54:59.863Z,98908.06
2022-11-15T22:57:26.496Z,98900.38
2022-11-15T22:59:53.127Z,98897.00
2022-11-15T23:02:19.702Z,98889.34
2022-11-15T23:04:46.301Z,98897.94
2022-11-15T23:07:13.066Z,98898.00
2022-11-15T23:09:40.268Z,98900.53
2022-11-15T23:12:27.048Z,98893.66
2022-11-15T23:14:53.627Z,98897.09
2022-11-15T23:17:20.176Z,98892.84
2022-11-15T23:19:47.095Z,98880.09
2022-11-15T23:22:32.474Z,98892.94
2022-11-15T23:24:59.668Z,98883.63
2022-11-15T23:27:26.376Z,98876.81
2022-11-15T23:30:11.734Z,98878.47
2022-11-15T23:32:57.114Z,98869.09
2022-11-15T23:35:23.783Z,98879.34
2022-11-15T23:37:50.335Z,98878.53
2022-11-15T23:40:17.151Z,98869.28
2022-11-15T23:42:43.801Z,98870.88
2022-11-15T23:45:10.710Z,98872.66
2022-11-15T23:47:37.266Z,98875.31
2022-11-15T23:50:04.216Z,98873.59
2022-11-15T23:52:31.013Z,98869.28
2022-11-15T23:54:57.642Z,98866.81
2022-11-15T23:57:24.323Z,98861.56
2022-11-15T23:59:50.899Z,98859.91
